Terminal Aerodrome Forecast
Issued by NWS

Home | Current Version | Previous Version | Text Only | Print | Product List | Glossary On
Versions: 1 2 3 4 5 6 7 8 9 10 11 12 13
062
FTUS45 KABQ 201120
TAFGUP
TAF
KGUP 201120Z 2012/2112 21008KT P6SM SCT090 BKN120
     FM202000 10011G21KT P6SM VCTS BKN090CB
     FM202300 10011KT P6SM VCSH OVC090 PROB30 2100/2104 -SHRA OVC060
     FM210400 VRB04KT P6SM BKN100=

USA.gov is the U.S. government's official web portal to all federal, state and local government web resources and services.